createdAt,value
2019-03-29T00:01:06.839Z,10.35
2019-03-29T00:02:13.397Z,10.70
2019-03-29T00:03:18.993Z,9.65
2019-03-29T00:04:24.584Z,10.38
2019-03-29T00:05:30.293Z,9.88
2019-03-29T00:06:36.410Z,10.50
2019-03-29T00:07:42.875Z,10.25
2019-03-29T00:08:48.543Z,10.10
2019-03-29T00:09:54.789Z,10.43
2019-03-29T00:11:00.605Z,9.90
2019-03-29T00:12:06.231Z,10.72
2019-03-29T00:13:14.664Z,9.88
2019-03-29T00:14:19.189Z,10.40
2019-03-29T00:15:24.840Z,9.85
2019-03-29T00:16:30.540Z,10.72
2019-03-29T00:17:36.168Z,10.30
2019-03-29T00:18:41.844Z,11.93
2019-03-29T00:19:47.543Z,11.00
2019-03-29T00:20:53.280Z,11.73
2019-03-29T00:21:58.973Z,11.65
2019-03-29T00:23:04.652Z,11.65
2019-03-29T00:24:10.328Z,10.43
2019-03-29T00:25:15.969Z,12.23
2019-03-29T00:26:21.664Z,12.07
2019-03-29T00:27:27.378Z,11.15
2019-03-29T00:28:33.031Z,11.80
2019-03-29T00:29:39.692Z,10.98
2019-03-29T00:30:45.266Z,11.70
2019-03-29T00:31:52.000Z,12.85
2019-03-29T00:32:57.997Z,13.60
2019-03-29T00:34:03.799Z,12.68
2019-03-29T00:35:09.454Z,12.20
2019-03-29T00:36:15.116Z,12.78
2019-03-29T00:37:20.741Z,12.65
2019-03-29T00:38:26.398Z,12.90
2019-03-29T00:39:32.059Z,12.00
2019-03-29T00:40:37.733Z,12.33
2019-03-29T00:41:43.475Z,12.23
2019-03-29T00:42:49.132Z,13.03
2019-03-29T00:43:54.799Z,14.13
2019-03-29T00:45:00.497Z,12.03
2019-03-29T00:46:06.147Z,12.63
2019-03-29T00:47:11.792Z,12.95
2019-03-29T00:48:17.376Z,11.95
2019-03-29T00:49:23.016Z,12.95
2019-03-29T00:50:28.580Z,12.00
2019-03-29T00:51:34.168Z,13.65
2019-03-29T00:52:39.824Z,13.25
2019-03-29T00:53:45.483Z,12.68
2019-03-29T00:54:51.075Z,12.03
2019-03-29T00:55:56.783Z,12.90
2019-03-29T00:57:02.438Z,12.70
2019-03-29T00:58:08.060Z,12.40
2019-03-29T00:59:14.301Z,12.40
2019-03-29T01:00:20.588Z,13.03
2019-03-29T01:01:26.404Z,14.45
2019-03-29T01:02:31.979Z,14.18
2019-03-29T01:03:37.709Z,12.43
2019-03-29T01:04:43.725Z,13.53
2019-03-29T01:05:49.377Z,13.58
2019-03-29T01:06:57.700Z,13.65
2019-03-29T01:08:10.039Z,12.37
2019-03-29T01:09:17.565Z,12.35
2019-03-29T01:10:23.486Z,13.48
2019-03-29T01:11:29.347Z,12.40
2019-03-29T01:12:36.185Z,12.37
2019-03-29T01:13:41.985Z,12.40
2019-03-29T01:14:47.686Z,11.75
2019-03-29T01:15:53.415Z,12.05
2019-03-29T01:16:59.149Z,12.63
2019-03-29T01:18:04.793Z,12.00
2019-03-29T01:19:10.373Z,12.53
2019-03-29T01:20:16.033Z,12.10
2019-03-29T01:21:21.594Z,11.93
2019-03-29T01:22:27.253Z,12.33
2019-03-29T01:23:32.920Z,11.95
2019-03-29T01:24:38.576Z,11.45
2019-03-29T01:25:44.227Z,12.58
2019-03-29T01:26:49.919Z,12.20
2019-03-29T01:27:55.588Z,11.90
2019-03-29T01:29:01.309Z,12.80
2019-03-29T01:30:07.824Z,13.60
2019-03-29T01:31:15.126Z,12.47
2019-03-29T01:32:20.849Z,12.43
2019-03-29T01:33:26.490Z,13.90
2019-03-29T01:34:32.076Z,13.90
2019-03-29T01:35:37.660Z,12.60
2019-03-29T01:36:43.241Z,12.37
2019-03-29T01:37:48.921Z,12.78
2019-03-29T01:38:54.600Z,13.25
2019-03-29T01:40:00.364Z,11.63
2019-03-29T01:41:06.113Z,12.90
2019-03-29T01:42:12.773Z,11.40
2019-03-29T01:43:18.364Z,11.28
2019-03-29T01:44:23.946Z,12.55
2019-03-29T01:45:40.437Z,12.73
2019-03-29T01:46:58.772Z,12.00
2019-03-29T01:48:15.136Z,12.00
2019-03-29T01:49:31.761Z,12.73
2019-03-29T01:50:48.439Z,12.55
2019-03-29T01:52:04.723Z,12.60
2019-03-29T01:53:21.047Z,12.03
2019-03-29T01:54:37.620Z,12.75
2019-03-29T01:55:54.030Z,12.60
2019-03-29T01:57:10.359Z,12.58
2019-03-29T01:58:26.884Z,12.53
2019-03-29T01:59:44.061Z,11.78
2019-03-29T02:01:00.470Z,11.93
2019-03-29T02:02:16.893Z,12.60
2019-03-29T02:03:33.896Z,12.78
2019-03-29T02:04:51.398Z,13.40
2019-03-29T02:06:08.560Z,14.13
2019-03-29T02:07:25.062Z,14.25
2019-03-29T02:08:42.155Z,14.20
2019-03-29T02:09:58.595Z,16.70
2019-03-29T02:11:15.675Z,14.05
2019-03-29T02:12:32.236Z,14.70
2019-03-29T02:13:48.676Z,14.55
2019-03-29T02:15:05.822Z,13.22
2019-03-29T02:16:22.517Z,13.45
2019-03-29T02:17:38.012Z,13.70
2019-03-29T02:19:02.484Z,13.25
2019-03-29T02:20:19.008Z,13.78
2019-03-29T02:21:35.633Z,13.43
2019-03-29T02:22:52.225Z,13.30
2019-03-29T02:24:08.651Z,12.82
2019-03-29T02:25:24.072Z,14.30
2019-03-29T02:26:48.456Z,14.20
2019-03-29T02:28:04.778Z,12.90
2019-03-29T02:29:22.015Z,13.22
2019-03-29T02:30:40.267Z,13.40
2019-03-29T02:31:57.095Z,13.65
2019-03-29T02:33:13.671Z,14.60
2019-03-29T02:34:30.386Z,13.72
2019-03-29T02:35:50.437Z,13.80
2019-03-29T02:37:07.814Z,14.07
2019-03-29T02:38:24.361Z,14.13
2019-03-29T02:39:40.900Z,15.08
2019-03-29T02:40:57.424Z,14.33
2019-03-29T02:42:14.965Z,13.80
2019-03-29T02:43:31.767Z,13.80
2019-03-29T02:44:48.306Z,15.03
2019-03-29T02:46:05.108Z,14.20
2019-03-29T02:47:21.962Z,13.58
2019-03-29T02:48:39.048Z,13.53
2019-03-29T02:49:56.328Z,14.28
2019-03-29T02:51:13.205Z,15.95
2019-03-29T02:52:29.598Z,14.25
2019-03-29T02:53:46.374Z,13.93
2019-03-29T02:55:02.877Z,15.25
2019-03-29T02:56:19.277Z,14.73
2019-03-29T02:57:35.734Z,14.10
2019-03-29T02:58:52.191Z,13.68
2019-03-29T03:00:08.646Z,13.70
2019-03-29T03:01:25.824Z,14.58
2019-03-29T03:02:42.202Z,15.13
2019-03-29T03:03:58.827Z,14.55
2019-03-29T03:05:15.968Z,15.68
2019-03-29T03:06:33.316Z,14.07
2019-03-29T03:07:50.265Z,15.03
2019-03-29T03:09:13.838Z,14.43
2019-03-29T03:10:25.151Z,14.73
2019-03-29T03:11:41.580Z,15.70
2019-03-29T03:12:58.746Z,14.13
2019-03-29T03:14:15.061Z,14.45
2019-03-29T03:15:31.430Z,14.83
2019-03-29T03:16:47.887Z,15.03
2019-03-29T03:18:05.026Z,14.95
2019-03-29T03:19:23.067Z,14.43
2019-03-29T03:20:39.709Z,16.15
2019-03-29T03:21:56.884Z,14.07
2019-03-29T03:23:13.859Z,14.23
2019-03-29T03:24:30.134Z,14.90
2019-03-29T03:25:46.649Z,14.53
2019-03-29T03:27:04.161Z,15.30
2019-03-29T03:28:20.770Z,14.68
2019-03-29T03:29:37.275Z,15.93
2019-03-29T03:30:54.015Z,14.93
2019-03-29T03:32:11.202Z,14.25
2019-03-29T03:33:27.682Z,15.72
2019-03-29T03:34:44.936Z,15.78
2019-03-29T03:36:01.722Z,15.00
2019-03-29T03:37:18.031Z,15.25
2019-03-29T03:38:35.030Z,15.65
2019-03-29T03:39:51.719Z,15.50
2019-03-29T03:41:08.074Z,16.65
2019-03-29T03:42:24.405Z,16.15
2019-03-29T03:43:41.069Z,17.35
2019-03-29T03:44:57.520Z,15.30
2019-03-29T03:46:14.295Z,19.27
2019-03-29T03:47:30.793Z,15.30
2019-03-29T03:48:47.763Z,18.62
2019-03-29T03:50:03.990Z,19.32
2019-03-29T03:51:20.783Z,18.77
2019-03-29T03:52:37.196Z,17.35
2019-03-29T03:53:54.395Z,19.65
2019-03-29T03:55:11.039Z,17.73
2019-03-29T03:56:28.234Z,15.80
2019-03-29T03:57:44.690Z,17.65
2019-03-29T03:59:01.396Z,19.35
2019-03-29T04:00:17.901Z,20.37
2019-03-29T04:01:34.300Z,20.52
2019-03-29T04:02:51.236Z,22.15
2019-03-29T04:04:07.499Z,22.13
2019-03-29T04:05:24.266Z,22.67
2019-03-29T04:06:41.545Z,23.42
2019-03-29T04:07:58.093Z,22.73
2019-03-29T04:09:13.631Z,20.90
2019-03-29T04:10:42.049Z,21.02
2019-03-29T04:12:15.538Z,20.40
2019-03-29T04:13:32.729Z,19.87
2019-03-29T04:14:49.381Z,20.40
2019-03-29T04:16:05.876Z,24.32
2019-03-29T04:17:22.295Z,23.65
2019-03-29T04:18:38.708Z,25.65
2019-03-29T04:19:55.524Z,25.43
2019-03-29T04:21:11.017Z,18.80
2019-03-29T04:22:35.386Z,21.20
2019-03-29T04:23:55.381Z,21.90
2019-03-29T04:25:11.770Z,19.48
2019-03-29T04:26:27.204Z,19.17
2019-03-29T04:27:51.575Z,20.97
2019-03-29T04:29:08.215Z,20.02
2019-03-29T04:30:25.407Z,19.02
2019-03-29T04:31:41.873Z,18.30
2019-03-29T04:32:58.238Z,20.27
2019-03-29T04:34:15.133Z,21.17
2019-03-29T04:35:32.624Z,19.27
2019-03-29T04:36:48.935Z,20.62
2019-03-29T04:38:04.527Z,21.12
2019-03-29T04:39:28.961Z,21.62
2019-03-29T04:40:46.887Z,22.65
2019-03-29T04:42:03.348Z,26.10
2019-03-29T04:43:19.839Z,24.12
2019-03-29T04:44:35.313Z,25.17
2019-03-29T04:45:59.740Z,25.55
2019-03-29T04:47:16.135Z,25.75
2019-03-29T04:48:32.475Z,26.35
2019-03-29T04:49:49.725Z,27.62
2019-03-29T04:51:06.308Z,24.57
2019-03-29T04:52:22.702Z,25.10
2019-03-29T04:53:39.344Z,23.62
2019-03-29T04:54:56.135Z,23.52
2019-03-29T04:56:13.208Z,22.95
2019-03-29T04:57:29.574Z,22.00
2019-03-29T04:58:46.528Z,21.40
2019-03-29T05:00:03.777Z,21.05
2019-03-29T05:01:20.268Z,20.30
2019-03-29T05:02:36.509Z,19.60
2019-03-29T05:03:53.693Z,19.05
2019-03-29T05:05:10.109Z,20.25
2019-03-29T05:06:27.156Z,19.30
2019-03-29T05:07:43.578Z,18.85
2019-03-29T05:09:00.115Z,18.70
2019-03-29T05:10:21.370Z,19.27
2019-03-29T05:11:35.014Z,19.73
2019-03-29T05:12:51.506Z,20.10
2019-03-29T05:14:06.992Z,20.12
2019-03-29T05:17:07.173Z,22.10
2019-03-29T05:18:23.490Z,22.70
2019-03-29T05:19:40.037Z,22.65
2019-03-29T05:20:57.288Z,21.12
2019-03-29T05:22:13.888Z,21.10
2019-03-29T05:23:30.697Z,21.27
2019-03-29T05:24:47.899Z,20.05
2019-03-29T05:26:06.690Z,20.70
2019-03-29T05:27:23.977Z,18.05
2019-03-29T05:28:40.487Z,17.15
2019-03-29T05:29:57.690Z,16.27
2019-03-29T05:31:15.053Z,15.83
2019-03-29T05:32:31.561Z,14.70
2019-03-29T05:33:46.973Z,13.53
2019-03-29T05:35:03.477Z,13.83
2019-03-29T05:36:20.767Z,13.62
2019-03-29T05:37:38.312Z,12.47
2019-03-29T05:38:54.997Z,14.25
2019-03-29T05:40:13.206Z,12.47
2019-03-29T05:41:29.750Z,11.48
2019-03-29T05:42:46.955Z,11.53
2019-03-29T05:44:03.553Z,11.70
2019-03-29T05:45:19.938Z,11.28
2019-03-29T05:46:36.617Z,11.12
2019-03-29T05:47:53.194Z,9.75
2019-03-29T05:49:09.601Z,9.80
2019-03-29T05:50:26.512Z,10.93
2019-03-29T05:51:42.914Z,10.65
2019-03-29T05:53:00.219Z,10.98
2019-03-29T05:54:17.073Z,10.32
2019-03-29T05:55:33.130Z,10.55
2019-03-29T05:56:57.659Z,10.32
2019-03-29T05:58:14.084Z,10.78
2019-03-29T06:01:20.069Z,10.10
2019-03-29T06:02:36.487Z,10.10
2019-03-29T06:03:53.722Z,9.75
2019-03-29T06:05:10.943Z,10.20
2019-03-29T06:06:27.496Z,9.70
2019-03-29T06:07:44.034Z,10.08
2019-03-29T06:09:00.339Z,9.55
2019-03-29T06:10:20.510Z,10.00
2019-03-29T06:11:37.861Z,9.90
2019-03-29T06:12:54.179Z,10.98
2019-03-29T06:14:11.481Z,10.88
2019-03-29T06:15:27.909Z,11.18
2019-03-29T06:16:45.082Z,10.72
2019-03-29T06:18:03.362Z,11.30
2019-03-29T06:19:20.405Z,11.70
2019-03-29T06:20:36.963Z,11.28
2019-03-29T06:21:54.053Z,11.40
2019-03-29T06:23:10.509Z,10.45
2019-03-29T06:24:27.143Z,11.03
2019-03-29T06:25:44.422Z,11.90
2019-03-29T06:27:01.825Z,11.73
2019-03-29T06:28:18.189Z,12.78
2019-03-29T06:29:34.686Z,11.63
2019-03-29T06:30:52.445Z,11.25
2019-03-29T06:32:09.325Z,11.40
2019-03-29T06:33:25.849Z,11.43
2019-03-29T06:34:42.894Z,11.90
2019-03-29T06:35:59.283Z,12.35
2019-03-29T06:37:16.448Z,9.73
2019-03-29T06:38:32.897Z,12.10
2019-03-29T06:39:49.410Z,11.73
2019-03-29T06:41:05.969Z,11.83
2019-03-29T06:42:23.271Z,12.95
2019-03-29T06:43:39.949Z,12.10
2019-03-29T06:44:57.222Z,12.98
2019-03-29T06:46:14.522Z,12.00
2019-03-29T06:47:31.854Z,12.65
2019-03-29T06:48:48.341Z,12.88
2019-03-29T06:50:04.879Z,12.50
2019-03-29T06:51:21.365Z,13.28
2019-03-29T06:52:38.647Z,12.70
2019-03-29T06:53:55.809Z,13.48
2019-03-29T06:55:12.194Z,13.22
2019-03-29T06:56:28.695Z,13.45
2019-03-29T06:57:45.656Z,12.37
2019-03-29T06:59:02.392Z,13.60
2019-03-29T07:00:19.035Z,13.72
2019-03-29T07:01:36.289Z,13.78
2019-03-29T07:02:52.723Z,14.03
2019-03-29T07:04:10.366Z,14.07
2019-03-29T07:05:27.417Z,14.28
2019-03-29T07:06:44.024Z,14.50
2019-03-29T07:08:00.595Z,14.53
2019-03-29T07:09:17.078Z,14.03
2019-03-29T07:10:34.387Z,13.65
2019-03-29T07:11:50.837Z,16.20
2019-03-29T07:13:08.109Z,14.05
2019-03-29T07:14:25.030Z,14.10
2019-03-29T07:15:41.766Z,12.23
2019-03-29T07:16:58.841Z,15.43
2019-03-29T07:18:15.519Z,13.43
2019-03-29T07:19:32.109Z,12.95
2019-03-29T07:20:49.717Z,13.15
2019-03-29T07:22:06.173Z,12.65
2019-03-29T07:23:23.078Z,13.60
2019-03-29T07:24:39.594Z,13.32
2019-03-29T07:25:56.810Z,14.55
2019-03-29T07:27:15.114Z,13.60
2019-03-29T07:28:31.976Z,12.73
2019-03-29T07:29:48.937Z,13.22
2019-03-29T07:31:05.587Z,12.82
2019-03-29T07:32:22.025Z,13.32
2019-03-29T07:33:38.687Z,12.78
2019-03-29T07:34:55.390Z,13.53
2019-03-29T07:36:11.894Z,12.70
2019-03-29T07:37:28.546Z,13.58
2019-03-29T07:38:45.011Z,13.22
2019-03-29T07:40:01.458Z,13.85
2019-03-29T07:41:31.182Z,12.82
2019-03-29T07:42:36.173Z,13.25
2019-03-29T07:44:00.553Z,13.75
2019-03-29T07:45:17.098Z,13.85
2019-03-29T07:46:33.804Z,13.75
2019-03-29T07:47:50.296Z,14.35
2019-03-29T07:49:06.985Z,14.18
2019-03-29T07:50:23.479Z,14.18
2019-03-29T07:51:40.297Z,13.75
2019-03-29T07:52:56.752Z,13.95
2019-03-29T07:54:13.500Z,14.73
2019-03-29T07:55:30.713Z,14.20
2019-03-29T07:56:47.837Z,13.88
2019-03-29T07:58:04.373Z,13.10
2019-03-29T07:59:21.064Z,12.82
2019-03-29T08:00:40.130Z,13.90
2019-03-29T08:01:56.581Z,14.03
2019-03-29T08:03:12.982Z,13.20
2019-03-29T08:04:30.078Z,13.32
2019-03-29T08:05:46.460Z,12.25
2019-03-29T08:07:03.797Z,12.68
2019-03-29T08:08:24.697Z,13.75
2019-03-29T08:09:39.157Z,12.63
2019-03-29T08:10:55.819Z,14.15
2019-03-29T08:12:12.207Z,15.93
2019-03-29T08:13:28.582Z,12.45
2019-03-29T08:14:44.993Z,13.18
2019-03-29T08:16:01.698Z,13.03
2019-03-29T08:17:18.924Z,13.30
2019-03-29T08:18:36.622Z,13.95
2019-03-29T08:20:24.558Z,14.13
2019-03-29T08:21:11.894Z,11.50
2019-03-29T08:22:29.377Z,13.30
2019-03-29T08:23:45.969Z,12.98
2019-03-29T08:25:01.470Z,12.30
2019-03-29T08:26:17.971Z,12.07
2019-03-29T08:27:34.524Z,13.28
2019-03-29T08:28:51.068Z,12.05
2019-03-29T08:30:07.743Z,13.18
2019-03-29T08:31:24.302Z,12.37
2019-03-29T08:32:40.629Z,12.28
2019-03-29T08:33:57.404Z,12.40
2019-03-29T08:35:13.881Z,12.05
2019-03-29T08:36:30.237Z,12.15
2019-03-29T08:37:47.747Z,12.20
2019-03-29T08:39:05.573Z,12.28
2019-03-29T08:40:22.938Z,12.73
2019-03-29T08:41:39.409Z,12.90
2019-03-29T08:42:55.901Z,12.73
2019-03-29T08:44:12.385Z,13.00
2019-03-29T08:45:29.605Z,12.15
2019-03-29T08:46:47.852Z,13.08
2019-03-29T08:48:06.635Z,11.48
2019-03-29T08:49:22.308Z,13.28
2019-03-29T08:50:39.223Z,11.97
2019-03-29T08:51:56.094Z,12.37
2019-03-29T08:53:12.792Z,12.95
2019-03-29T08:54:30.036Z,12.98
2019-03-29T08:55:46.588Z,12.93
2019-03-29T08:57:03.325Z,12.78
2019-03-29T08:58:19.818Z,12.00
2019-03-29T08:59:36.750Z,12.35
2019-03-29T09:00:52.236Z,13.38
2019-03-29T09:02:16.637Z,13.48
2019-03-29T09:05:22.031Z,11.75
2019-03-29T09:06:52.043Z,11.60
2019-03-29T09:07:58.646Z,11.75
2019-03-29T09:09:15.193Z,12.10
2019-03-29T09:10:32.267Z,11.85
2019-03-29T09:11:48.690Z,11.90
2019-03-29T09:13:05.425Z,11.90
2019-03-29T09:14:22.471Z,11.85
2019-03-29T09:15:38.937Z,11.25
2019-03-29T09:16:55.632Z,11.55
2019-03-29T09:18:12.037Z,11.15
2019-03-29T09:19:29.355Z,11.18
2019-03-29T09:20:46.020Z,12.37
2019-03-29T09:22:02.562Z,11.30
2019-03-29T09:23:18.953Z,10.65
2019-03-29T09:24:35.430Z,12.73
2019-03-29T09:25:51.798Z,12.60
2019-03-29T09:27:08.457Z,12.20
2019-03-29T09:28:25.289Z,10.93
2019-03-29T09:29:41.876Z,10.58
2019-03-29T09:30:58.457Z,10.80
2019-03-29T09:32:14.741Z,11.55
2019-03-29T09:33:31.357Z,10.68
2019-03-29T09:34:48.213Z,11.70
2019-03-29T09:36:05.364Z,11.12
2019-03-29T09:37:21.865Z,11.40
2019-03-29T09:38:38.407Z,10.43
2019-03-29T09:39:54.820Z,11.43
2019-03-29T09:41:11.969Z,11.33
2019-03-29T09:42:30.199Z,9.95
2019-03-29T09:43:47.840Z,10.90
2019-03-29T09:45:04.949Z,10.50
2019-03-29T09:46:22.259Z,10.45
2019-03-29T09:47:40.682Z,10.85
2019-03-29T09:48:57.262Z,10.38
2019-03-29T09:50:13.677Z,10.63
2019-03-29T09:51:30.474Z,10.82
2019-03-29T09:52:47.070Z,10.13
2019-03-29T09:54:03.541Z,11.18
2019-03-29T09:55:20.554Z,11.78
2019-03-29T09:56:39.539Z,10.80
2019-03-29T09:57:56.329Z,11.35
2019-03-29T09:59:16.204Z,11.40
2019-03-29T10:00:31.447Z,11.85
2019-03-29T10:01:48.209Z,11.30
2019-03-29T10:03:04.705Z,12.53
2019-03-29T10:04:21.090Z,11.03
2019-03-29T10:05:37.638Z,10.40
2019-03-29T10:06:54.738Z,10.50
2019-03-29T10:08:11.312Z,9.55
2019-03-29T10:09:26.776Z,9.65
2019-03-29T10:10:51.156Z,8.45
2019-03-29T10:12:07.569Z,8.40
2019-03-29T10:13:24.558Z,10.20
2019-03-29T10:14:42.576Z,9.23
2019-03-29T10:15:58.977Z,10.10
2019-03-29T10:17:15.505Z,9.00
2019-03-29T10:18:32.680Z,9.20
2019-03-29T10:19:50.047Z,8.10
2019-03-29T10:21:06.782Z,8.80
2019-03-29T10:22:23.062Z,8.00
2019-03-29T10:23:40.078Z,7.47
2019-03-29T10:25:01.887Z,7.80
2019-03-29T10:26:17.594Z,8.30
2019-03-29T10:27:34.142Z,8.25
2019-03-29T10:28:51.299Z,7.72
2019-03-29T10:30:08.436Z,7.97
2019-03-29T10:31:32.255Z,7.50
2019-03-29T10:32:43.030Z,6.95
2019-03-29T10:33:59.605Z,7.75
2019-03-29T10:35:16.177Z,7.33
2019-03-29T10:36:32.825Z,7.50
2019-03-29T10:37:50.074Z,8.28
2019-03-29T10:39:08.088Z,7.40
2019-03-29T10:40:32.723Z,9.38
2019-03-29T10:41:57.114Z,9.20
2019-03-29T10:43:13.438Z,8.75
2019-03-29T10:44:29.886Z,8.20
2019-03-29T10:45:46.905Z,8.45
2019-03-29T10:47:05.073Z,9.30
2019-03-29T10:48:21.558Z,8.25
2019-03-29T10:49:37.960Z,8.88
2019-03-29T10:50:55.131Z,8.70
2019-03-29T10:52:12.171Z,8.20
2019-03-29T10:53:29.060Z,9.18
2019-03-29T10:54:45.578Z,7.58
2019-03-29T10:56:02.066Z,8.48
2019-03-29T10:57:18.939Z,7.95
2019-03-29T10:58:36.173Z,7.58
2019-03-29T10:59:52.754Z,6.70
2019-03-29T11:01:09.990Z,5.95
2019-03-29T11:02:27.034Z,6.00
2019-03-29T11:03:43.563Z,6.90
2019-03-29T11:04:59.980Z,6.33
2019-03-29T11:06:16.411Z,6.75
2019-03-29T11:07:32.968Z,7.05
2019-03-29T11:08:51.491Z,7.45
2019-03-29T11:10:07.842Z,6.97
2019-03-29T11:11:24.708Z,7.05
2019-03-29T11:12:40.267Z,8.25
2019-03-29T11:14:04.660Z,7.60
2019-03-29T11:15:21.918Z,7.25
2019-03-29T11:16:39.084Z,7.35
2019-03-29T11:17:56.381Z,6.80
2019-03-29T11:19:13.496Z,7.62
2019-03-29T11:20:29.966Z,7.30
2019-03-29T11:21:47.256Z,7.47
2019-03-29T11:23:04.603Z,7.10
2019-03-29T11:24:20.976Z,7.83
2019-03-29T11:25:37.557Z,7.15
2019-03-29T11:26:54.900Z,7.67
2019-03-29T11:28:11.526Z,7.20
2019-03-29T11:29:28.076Z,6.67
2019-03-29T11:30:45.370Z,8.10
2019-03-29T11:32:01.784Z,7.17
2019-03-29T11:33:19.007Z,7.65
2019-03-29T11:34:36.065Z,6.83
2019-03-29T11:35:53.360Z,7.17
2019-03-29T11:37:09.882Z,7.05
2019-03-29T11:38:26.171Z,7.37
2019-03-29T11:39:42.569Z,6.75
2019-03-29T11:40:59.088Z,6.78
2019-03-29T11:42:15.812Z,7.37
2019-03-29T11:43:32.442Z,7.78
2019-03-29T11:44:49.629Z,7.12
2019-03-29T11:46:06.391Z,7.15
2019-03-29T11:47:23.170Z,7.08
2019-03-29T11:48:39.693Z,6.90
2019-03-29T11:49:56.038Z,6.87
2019-03-29T11:51:19.362Z,6.72
2019-03-29T11:52:33.731Z,6.85
2019-03-29T11:53:51.000Z,6.95
2019-03-29T11:55:08.106Z,6.35
2019-03-29T11:56:25.283Z,6.60
2019-03-29T11:57:41.942Z,6.25
2019-03-29T11:58:58.474Z,6.60
2019-03-29T12:00:14.904Z,7.35
2019-03-29T12:01:31.884Z,6.08
2019-03-29T12:02:48.334Z,7.30
2019-03-29T12:04:05.101Z,7.08
2019-03-29T12:05:22.034Z,6.22
2019-03-29T12:06:38.467Z,7.05
2019-03-29T12:07:54.832Z,6.20
2019-03-29T12:09:11.213Z,6.47
2019-03-29T12:10:28.420Z,5.62
2019-03-29T12:11:44.757Z,6.10
2019-03-29T12:13:01.528Z,6.10
2019-03-29T12:14:17.849Z,6.28
2019-03-29T12:15:35.145Z,5.83
2019-03-29T12:16:51.605Z,6.62
2019-03-29T12:18:08.420Z,5.58
2019-03-29T12:19:25.541Z,5.15
2019-03-29T12:20:42.046Z,6.17
2019-03-29T12:21:58.461Z,5.30
2019-03-29T12:23:15.327Z,5.83
2019-03-29T12:24:31.743Z,5.53
2019-03-29T12:25:48.736Z,5.87
2019-03-29T12:27:05.408Z,5.12
2019-03-29T12:28:22.605Z,6.40
2019-03-29T12:29:39.933Z,6.60
2019-03-29T12:30:56.486Z,5.60
2019-03-29T12:32:13.634Z,5.60
2019-03-29T12:33:30.053Z,4.97
2019-03-29T12:34:46.537Z,5.58
2019-03-29T12:36:02.943Z,5.50
2019-03-29T12:37:19.287Z,5.72
2019-03-29T12:38:35.937Z,4.83
2019-03-29T12:39:53.093Z,5.28
2019-03-29T12:41:09.618Z,5.25
2019-03-29T12:42:26.056Z,4.42
2019-03-29T12:43:55.012Z,4.92
2019-03-29T12:45:01.277Z,6.00
2019-03-29T12:46:17.677Z,5.58
2019-03-29T12:47:34.249Z,5.28
2019-03-29T12:48:50.469Z,5.40
2019-03-29T12:50:15.042Z,4.75
2019-03-29T12:51:31.285Z,5.37
2019-03-29T12:52:47.887Z,4.87
2019-03-29T12:54:03.516Z,5.15
2019-03-29T12:55:27.956Z,5.53
2019-03-29T12:56:44.406Z,5.35
2019-03-29T12:58:01.165Z,5.03
2019-03-29T12:59:17.921Z,5.20
2019-03-29T13:00:34.323Z,5.20
2019-03-29T13:01:51.062Z,5.17
2019-03-29T13:03:07.583Z,5.22
2019-03-29T13:04:24.073Z,5.33
2019-03-29T13:05:41.168Z,5.30
2019-03-29T13:06:57.951Z,5.22
2019-03-29T13:08:14.613Z,5.28
2019-03-29T13:09:30.983Z,4.97
2019-03-29T13:10:48.306Z,4.97
2019-03-29T13:12:05.270Z,5.30
2019-03-29T13:13:22.650Z,5.65
2019-03-29T13:14:39.316Z,5.00
2019-03-29T13:15:56.428Z,5.60
2019-03-29T13:17:12.931Z,5.55
2019-03-29T13:18:37.372Z,6.37
2019-03-29T13:20:13.724Z,5.97
2019-03-29T13:21:30.224Z,5.58
2019-03-29T13:22:47.258Z,5.33
2019-03-29T13:24:04.510Z,5.70
2019-03-29T13:25:21.014Z,6.58
2019-03-29T13:26:38.366Z,6.17
2019-03-29T13:27:59.012Z,5.70
2019-03-29T13:29:11.851Z,5.17
2019-03-29T13:30:36.200Z,5.45
2019-03-29T13:32:00.683Z,5.62
2019-03-29T13:33:20.361Z,6.58
2019-03-29T13:34:35.462Z,5.70
2019-03-29T13:35:51.977Z,5.70
2019-03-29T13:37:09.061Z,6.33
2019-03-29T13:38:25.483Z,6.00
2019-03-29T13:39:42.005Z,5.90
2019-03-29T13:41:00.241Z,5.83
2019-03-29T13:42:16.717Z,5.17
2019-03-29T13:43:33.550Z,5.35
2019-03-29T13:44:49.958Z,5.95
2019-03-29T13:46:06.521Z,5.95
2019-03-29T13:47:23.037Z,5.72
2019-03-29T13:48:38.492Z,5.62
2019-03-29T13:49:54.801Z,6.17
2019-03-29T13:51:11.403Z,4.58
2019-03-29T13:52:31.108Z,5.03
2019-03-29T13:53:46.499Z,5.33
2019-03-29T13:55:03.067Z,5.05
2019-03-29T13:56:19.961Z,5.87
2019-03-29T13:57:36.201Z,5.95
2019-03-29T13:58:52.765Z,5.45
2019-03-29T14:00:10.186Z,5.80
2019-03-29T14:01:26.534Z,5.50
2019-03-29T14:02:43.049Z,5.92
2019-03-29T14:03:59.535Z,5.70
2019-03-29T14:05:16.333Z,5.10
2019-03-29T14:06:33.009Z,5.25
2019-03-29T14:07:50.349Z,5.50
2019-03-29T14:09:06.981Z,5.10
2019-03-29T14:10:23.357Z,5.58
2019-03-29T14:11:40.322Z,5.90
2019-03-29T14:12:56.880Z,5.50
2019-03-29T14:14:13.305Z,5.05
2019-03-29T14:15:30.627Z,5.80
2019-03-29T14:16:47.905Z,5.90
2019-03-29T14:18:05.354Z,6.22
2019-03-29T14:19:21.684Z,5.60
2019-03-29T14:20:38.157Z,6.10
2019-03-29T14:21:54.668Z,5.03
2019-03-29T14:23:11.105Z,6.87
2019-03-29T14:24:27.601Z,5.42
2019-03-29T14:25:44.762Z,6.28
2019-03-29T14:27:02.079Z,5.87
2019-03-29T14:28:18.580Z,6.70
2019-03-29T14:29:35.649Z,6.50
2019-03-29T14:30:52.157Z,5.80
2019-03-29T14:32:08.520Z,5.90
2019-03-29T14:33:25.022Z,6.30
2019-03-29T14:34:41.541Z,6.65
2019-03-29T14:35:57.990Z,5.95
2019-03-29T14:37:14.341Z,7.00
2019-03-29T14:38:31.409Z,6.00
2019-03-29T14:39:48.150Z,6.10
2019-03-29T14:41:05.625Z,5.80
2019-03-29T14:42:22.000Z,5.80
2019-03-29T14:43:38.513Z,5.20
2019-03-29T14:44:55.282Z,6.58
2019-03-29T14:46:15.042Z,6.83
2019-03-29T14:47:41.275Z,7.10
2019-03-29T14:48:50.025Z,6.25
2019-03-29T14:50:06.472Z,6.10
2019-03-29T14:51:23.040Z,4.80
2019-03-29T14:52:39.879Z,6.35
2019-03-29T14:53:57.128Z,6.15
2019-03-29T14:55:13.518Z,5.33
2019-03-29T14:56:30.727Z,7.00
2019-03-29T14:57:47.258Z,6.87
2019-03-29T14:59:04.042Z,6.50
2019-03-29T15:00:24.305Z,6.20
2019-03-29T15:01:41.609Z,7.22
2019-03-29T15:02:58.914Z,6.00
2019-03-29T15:04:16.228Z,7.00
2019-03-29T15:05:31.696Z,6.67
2019-03-29T15:06:56.067Z,7.30
2019-03-29T15:08:20.565Z,6.60
2019-03-29T15:09:37.599Z,6.00
2019-03-29T15:10:54.141Z,6.45
2019-03-29T15:12:10.538Z,5.95
2019-03-29T15:13:27.244Z,6.33
2019-03-29T15:14:44.547Z,7.03
2019-03-29T15:16:01.022Z,6.78
2019-03-29T15:17:17.399Z,6.35
2019-03-29T15:18:34.290Z,6.37
2019-03-29T15:19:50.861Z,6.42
2019-03-29T15:21:10.312Z,6.45
2019-03-29T15:22:26.165Z,6.75
2019-03-29T15:23:42.590Z,5.85
2019-03-29T15:24:58.958Z,6.72
2019-03-29T15:26:15.576Z,7.40
2019-03-29T15:27:32.632Z,7.22
2019-03-29T15:28:49.701Z,6.75
2019-03-29T15:30:05.991Z,7.47
2019-03-29T15:31:23.184Z,7.42
2019-03-29T15:32:39.542Z,7.45
2019-03-29T15:33:56.248Z,7.62
2019-03-29T15:35:13.185Z,8.10
2019-03-29T15:36:30.029Z,7.85
2019-03-29T15:37:46.310Z,7.65
2019-03-29T15:39:02.896Z,7.87
2019-03-29T15:40:20.913Z,7.67
2019-03-29T15:41:37.433Z,7.75
2019-03-29T15:42:53.809Z,7.62
2019-03-29T15:44:11.128Z,7.75
2019-03-29T15:45:27.483Z,7.30
2019-03-29T15:46:44.413Z,8.63
2019-03-29T15:48:01.096Z,8.05
2019-03-29T15:49:18.327Z,7.65
2019-03-29T15:50:34.895Z,7.80
2019-03-29T15:51:51.389Z,7.20
2019-03-29T15:53:08.248Z,7.10
2019-03-29T15:54:24.796Z,7.95
2019-03-29T15:55:41.198Z,7.67
2019-03-29T15:56:57.657Z,7.80
2019-03-29T15:58:14.958Z,8.03
2019-03-29T15:59:31.549Z,8.28
2019-03-29T16:00:48.148Z,7.60
2019-03-29T16:02:05.403Z,8.10
2019-03-29T16:03:22.516Z,8.50
2019-03-29T16:04:39.162Z,7.72
2019-03-29T16:05:56.192Z,7.85
2019-03-29T16:07:13.425Z,7.92
2019-03-29T16:08:30.310Z,8.50
2019-03-29T16:09:47.292Z,8.33
2019-03-29T16:11:03.782Z,8.38
2019-03-29T16:12:20.303Z,8.68
2019-03-29T16:13:36.810Z,8.90
2019-03-29T16:14:52.234Z,8.80
2019-03-29T16:16:16.705Z,8.90
2019-03-29T16:17:41.175Z,8.68
2019-03-29T16:18:58.404Z,7.70
2019-03-29T16:20:14.946Z,8.88
2019-03-29T16:21:32.080Z,9.68
2019-03-29T16:22:48.825Z,8.38
2019-03-29T16:24:04.289Z,8.18
2019-03-29T16:25:28.683Z,9.05
2019-03-29T16:26:47.100Z,8.30
2019-03-29T16:28:03.593Z,9.75
2019-03-29T16:29:22.461Z,8.78
2019-03-29T16:30:37.877Z,7.42
2019-03-29T16:31:54.816Z,9.28
2019-03-29T16:33:12.613Z,8.80
2019-03-29T16:34:29.185Z,8.48